Date,TemperatureHighF,TemperatureAvgF,TemperatureLowF,DewpointHighF,DewpointAvgF,DewpointLowF,HumidityHigh,HumidityAvg,HumidityLow,PressureMaxIn,PressureMinIn,WindSpeedMaxMPH,WindSpeedAvgMPH,GustSpeedMaxMPH,PrecipitationSumIn
2013-1-1,31,26,22,22,14,9,84,60,50,0.00,40.00,0,0,0,0.00
2013-1-2,30,23,18,11,7,2,57,49,41,0.00,40.00,0,0,0,0.00
2013-1-3,38,24,16,11,3,-1,47,40,32,0.00,40.00,0,0,0,0.00
2013-1-4,42,31,21,11,6,0,40,34,26,0.00,40.00,0,0,0,0.00
2013-1-5,40,30,23,17,13,8,61,48,35,0.00,40.00,0,0,0,0.00
2013-1-6,41,31,23,16,12,8,52,44,33,0.00,40.00,0,0,0,0.00
2013-1-7,44,35,29,20,16,13,55,47,34,0.00,40.00,0,0,0,0.00
2013-1-8,43,38,32,19,16,12,47,40,31,0.00,40.00,0,0,0,0.00
2013-1-9,58,45,33,22,18,14,46,34,22,0.00,40.00,0,0,0,0.00
2013-1-10,49,32,15,24,19,11,91,60,29,0.00,40.00,0,0,0,0.00
2013-1-11,15,8,5,11,3,0,83,80,72,0.00,40.00,0,0,0,0.00
2013-1-12,14,8,3,5,2,-2,83,77,62,0.00,40.00,0,0,0,0.00
2013-1-13,16,10,4,3,0,-2,81,65,51,0.00,40.00,0,0,0,0.00
2013-1-14,17,12,9,3,-1,-4,62,55,48,0.00,40.00,0,0,0,0.00
2013-1-15,33,25,17,17,12,4,65,58,51,0.00,40.00,0,0,0,0.00
2013-1-16,41,36,32,17,14,11,51,41,36,0.00,40.00,0,0,0,0.00
2013-1-17,43,36,26,17,14,9,49,39,30,0.00,40.00,0,0,0,0.00
2013-1-18,50,42,37,17,14,11,34,31,26,0.00,40.00,0,0,0,0.00
2013-1-19,41,34,27,22,17,10,75,52,30,0.00,40.00,0,0,0,0.00
2013-1-20,36,20,14,18,13,9,85,73,42,0.00,40.00,0,0,0,0.00
2013-1-21,31,20,11,17,13,8,87,72,53,0.00,40.00,0,0,0,0.00
2013-1-22,46,36,25,14,12,8,63,37,25,0.00,40.00,0,0,0,0.00
2013-1-23,35,22,14,15,13,10,89,71,37,0.00,40.00,0,0,0,0.00
2013-1-24,50,38,21,23,18,12,75,44,34,0.00,40.00,0,0,0,0.00
2013-1-25,48,39,30,25,21,17,58,48,40,0.00,40.00,0,0,0,0.00
2013-1-26,54,44,35,28,24,22,57,45,31,0.00,40.00,0,0,0,0.00
2013-1-27,43,32,28,31,27,21,91,85,45,0.00,40.00,0,0,0,0.00
2013-1-28,33,27,22,25,16,7,91,65,49,0.00,40.00,0,0,0,0.00
2013-1-29,25,15,1,20,6,-6,88,68,51,0.00,40.00,0,0,0,0.00
2013-1-30,31,20,3,24,14,-2,89,76,59,0.00,40.00,0,0,0,0.00
2013-1-31,34,19,1,22,12,-5,78,73,61,0.00,40.00,0,0,0,0.00
2013-2-1,41,36,32,27,23,19,74,59,44,0.00,40.00,0,0,0,0.00
2013-2-2,36,31,27,19,16,13,62,53,46,0.00,40.00,0,0,0,0.00
2013-2-4,45,40,35,22,20,16,52,44,36,0.00,40.00,0,0,0,0.00
2013-2-5,47,40,35,26,22,20,55,49,41,0.00,40.00,0,0,0,0.00
2013-2-6,45,37,32,20,17,11,53,43,33,0.00,40.00,0,0,0,0.00
2013-2-7,40,34,29,19,15,12,53,45,39,0.00,40.00,0,0,0,0.00
2013-2-8,43,33,28,20,17,14,64,52,38,0.00,40.00,0,0,0,0.00
2013-2-9,37,30,23,24,20,18,87,68,48,0.00,40.00,0,0,0,0.00
2013-2-10,29,23,17,25,16,9,91,76,52,0.00,40.00,0,0,0,0.00
2013-2-11,30,21,12,13,7,3,86,56,38,0.00,40.00,0,0,0,0.00
2013-2-12,39,30,20,18,12,4,50,46,42,0.00,40.00,0,0,0,0.00
2013-2-13,43,35,27,30,21,13,91,58,39,0.00,40.00,0,0,0,0.00
2013-2-14,31,26,24,25,16,9,91,64,40,0.00,40.00,0,0,0,0.00
2013-2-15,40,31,23,24,20,17,91,66,46,0.00,40.00,0,0,0,0.00
2013-2-16,50,40,32,22,18,15,50,41,31,0.00,40.00,0,0,0,0.00
2013-2-17,40,34,29,30,21,15,90,59,39,0.00,40.00,0,0,0,0.00
2013-2-18,32,26,18,23,16,11,90,67,42,0.00,40.00,0,0,0,0.00
2013-2-19,28,20,14,16,13,9,88,74,57,0.00,40.00,0,0,0,0.00
2013-2-20,26,20,15,18,14,11,89,77,61,0.00,40.00,0,0,0,0.00
2013-2-21,39,25,17,22,17,12,87,72,46,0.00,40.00,0,0,0,0.00
2013-2-22,40,31,24,16,13,8,70,49,27,0.00,40.00,0,0,0,0.00
2013-2-23,37,31,27,29,20,11,92,64,40,0.00,40.00,0,0,0,0.00
2013-2-24,36,29,20,23,14,6,80,54,35,0.00,40.00,0,0,0,0.00
2013-2-25,45,33,23,16,12,7,56,42,30,0.00,40.00,0,0,0,0.00
2013-2-26,39,32,27,18,15,11,65,49,37,0.00,40.00,0,0,0,0.00
2013-2-27,43,32,24,17,15,11,71,50,32,0.00,40.00,0,0,0,0.00
2013-2-28,44,34,29,20,15,12,55,45,37,0.00,40.00,0,0,0,0.00
2013-3-1,55,42,29,28,22,14,54,45,34,0.00,40.00,0,0,0,0.00
2013-3-2,61,49,42,27,25,21,44,39,28,0.00,40.00,0,0,0,0.00
2013-3-3,53,45,40,30,26,23,54,47,41,0.00,40.00,0,0,0,0.00
2013-3-4,26,19,12,14,9,5,75,66,50,0.00,40.00,0,0,0,0.00
2013-3-5,26,19,11,17,10,5,76,69,61,0.00,40.00,0,0,0,0.00
2013-3-6,33,26,17,23,17,11,83,70,57,0.00,40.00,0,0,0,0.00
2013-3-7,36,31,28,23,22,20,78,68,56,0.00,40.00,0,0,0,0.00
2013-3-8,40,33,28,26,25,22,85,71,56,0.00,40.00,0,0,0,0.00
2013-3-9,45,36,26,17,14,11,62,42,29,0.00,40.00,0,0,0,0.00
2013-3-10,54,40,26,19,16,13,60,40,22,0.00,40.00,0,0,0,0.00
2013-3-11,45,36,28,23,19,14,60,49,31,0.00,40.00,0,0,0,0.00
2013-3-12,44,32,22,19,16,13,85,54,32,0.00,40.00,0,0,0,0.00
2013-3-13,66,50,36,27,22,17,46,34,22,0.00,40.00,0,0,0,0.00
2013-3-14,66,55,47,30,25,22,39,31,24,0.00,40.00,0,0,0,0.00
2013-3-15,64,52,34,28,24,21,72,35,23,0.00,40.00,0,0,0,0.00
2013-3-16,48,34,22,26,23,20,91,68,37,0.00,40.00,0,0,0,0.00
2013-3-17,38,32,20,29,17,6,90,57,26,0.00,40.00,0,0,0,0.00
2013-3-18,40,26,11,17,10,3,86,55,21,0.00,40.00,0,0,0,0.00
2013-3-19,34,27,21,22,17,12,88,65,41,0.00,40.00,0,0,0,0.00
2013-3-20,53,38,24,19,15,10,60,40,22,0.00,40.00,21,8,24,0.00
2013-3-21,44,37,30,31,17,3,91,47,23,0.00,40.00,26,14,37,0.00
2013-3-22,31,26,20,24,12,2,85,58,31,0.00,40.00,20,10,27,0.00
2013-3-23,33,22,13,12,6,1,76,54,26,0.00,40.00,14,7,22,0.00
2013-3-24,29,20,12,10,7,4,83,58,36,0.00,40.00,13,7,23,0.00
2013-3-25,44,30,15,11,6,2,68,41,18,0.00,40.00,21,10,26,0.00
2013-3-26,52,39,30,18,9,2,35,29,24,0.00,40.00,16,8,22,0.00
2013-3-27,61,44,27,22,17,10,55,35,22,0.00,40.00,17,7,22,0.00
2013-3-28,64,49,33,27,22,15,53,35,23,0.00,40.00,15,7,18,0.00
2013-3-29,59,49,38,36,28,19,73,45,32,0.00,40.00,19,9,34,0.00
2013-3-30,58,47,40,35,26,-100,75,47,25,0.00,40.00,29,12,37,0.00
2013-3-31,58,46,37,28,22,17,49,39,31,0.00,40.00,26,14,34,0.00
2013-4-1,54,43,29,27,23,18,70,46,31,0.00,40.00,16,8,21,0.00
2013-4-2,66,48,29,29,23,18,65,41,24,0.00,40.00,15,7,21,0.00
2013-4-3,64,52,41,32,25,19,57,35,29,0.00,40.00,24,13,29,0.00
2013-4-4,55,46,34,32,29,25,76,53,39,0.00,40.00,22,10,27,0.00
2013-4-5,60,52,43,44,33,27,80,50,36,0.00,40.00,22,10,39,0.00
2013-4-6,62,50,40,37,29,25,72,46,28,0.00,40.00,23,11,34,0.00
2013-4-7,58,47,35,40,34,30,90,63,40,0.00,40.00,28,7,34,0.00
2013-4-8,32,22,17,30,18,13,93,87,80,0.00,40.00,28,17,36,0.00
2013-4-9,27,21,14,14,10,7,79,63,52,0.00,40.00,10,3,12,0.00
2013-4-10,44,29,16,21,14,7,74,56,38,0.00,40.00,19,9,26,0.00
2013-4-11,54,43,35,31,27,19,76,54,36,0.00,40.00,34,13,45,0.00
2013-4-12,46,39,32,32,23,16,90,55,33,0.00,40.00,22,13,27,0.00
2013-4-13,50,37,33,34,26,17,91,67,42,0.00,40.00,32,14,37,0.00
2013-4-14,34,29,20,27,20,16,87,69,49,0.00,40.00,30,18,37,0.00
2013-4-15,31,24,16,22,18,13,86,77,60,0.00,40.00,12,6,18,0.00
2013-4-16,27,24,20,21,18,15,86,80,68,0.00,40.00,15,8,19,0.00
2013-4-17,32,24,16,24,18,13,89,79,54,0.00,40.00,12,5,16,0.00
2013-4-18,49,34,19,21,18,14,89,57,26,0.00,40.00,24,10,33,0.00
2013-4-19,53,45,34,39,26,20,87,48,33,0.00,40.00,20,10,24,0.00
2013-4-20,59,47,38,38,31,22,84,56,25,0.00,40.00,26,12,37,0.00
2013-4-21,44,31,26,32,26,23,91,82,55,0.00,40.00,22,14,26,0.00
2013-4-22,34,26,21,23,18,13,90,73,44,0.00,40.00,19,8,22,0.00
2013-4-23,48,32,19,24,15,9,76,51,22,0.00,40.00,23,10,34,0.00
2013-4-24,54,41,30,30,22,15,91,52,23,0.00,40.00,24,11,35,0.00
2013-4-25,66,53,39,24,19,16,38,28,18,0.00,40.00,20,11,33,0.00
2013-4-26,71,58,44,28,24,19,41,28,19,0.00,40.00,19,9,25,0.00
2013-4-27,74,63,51,30,26,22,34,25,17,0.00,40.00,29,13,41,0.00
2013-4-28,64,57,50,36,30,22,56,36,23,0.00,40.00,16,9,25,0.00
2013-4-29,65,53,47,38,30,26,68,42,28,0.00,40.00,34,12,49,0.00
2013-4-30,45,39,29,27,19,15,64,45,34,0.00,40.00,29,19,35,0.00
2013-5-1,46,35,24,20,17,13,79,50,28,0.00,40.00,13,6,16,0.00
2013-5-2,62,47,33,24,20,14,60,36,20,0.00,40.00,16,10,25,0.00
2013-5-3,63,52,41,40,25,15,79,38,27,0.00,40.00,20,10,30,0.00
2013-5-4,55,48,43,42,36,27,89,66,39,0.00,40.00,23,7,30,0.00
2013-5-5,64,53,39,37,28,21,85,42,23,0.00,40.00,16,9,23,0.00
2013-5-6,72,58,43,33,27,20,44,31,22,0.00,40.00,16,8,19,0.00
2013-5-7,77,62,47,37,29,24,46,30,20,0.00,40.00,18,10,27,0.00
2013-5-8,68,57,43,39,34,26,68,44,29,0.00,40.00,29,11,34,0.00
2013-5-9,71,59,43,41,36,32,71,45,29,0.00,40.00,13,6,19,0.00
2013-5-10,68,56,47,40,31,-100,57,41,29,0.00,40.00,27,12,34,0.00
2013-5-11,74,58,43,38,28,-100,41,33,27,0.00,40.00,12,8,19,0.00
2013-5-12,88,73,59,43,38,32,37,28,18,0.00,40.00,29,12,35,0.00
2013-5-13,91,77,66,46,39,35,34,27,18,0.00,40.00,24,9,32,0.00
2013-5-14,79,66,52,44,37,26,64,37,23,0.00,40.00,24,11,34,0.00
2013-5-15,72,61,48,45,30,21,66,31,27,0.00,40.00,17,12,26,0.00
2013-5-16,69,53,50,50,29,-100,90,66,39,0.00,40.00,25,10,30,0.00
2013-5-17,59,53,50,52,44,-100,91,84,65,0.00,40.00,12,5,19,0.00
2013-5-18,55,53,51,50,48,47,90,85,73,0.00,40.00,15,7,18,0.00
2013-5-19,54,51,49,49,47,46,89,89,85,0.00,40.00,21,15,29,0.00
2013-5-20,62,54,47,44,37,25,85,54,25,0.00,40.00,27,16,37,0.00
2013-5-21,62,52,42,39,34,27,83,56,27,0.00,40.00,27,10,35,0.00
2013-5-22,63,51,43,40,39,37,89,66,40,0.00,40.00,39,23,50,0.00
2013-5-23,69,59,50,51,42,37,86,54,37,0.00,40.00,35,22,44,0.00
2013-5-24,70,58,46,50,34,24,89,50,19,0.00,40.00,24,13,32,0.00
2013-5-25,75,62,48,39,33,25,47,35,23,0.00,40.00,24,12,27,0.00
2013-5-26,73,60,49,51,45,37,86,59,36,0.00,40.00,24,12,30,0.00
2013-5-27,63,55,47,47,42,36,90,64,37,0.00,40.00,14,5,26,0.00
2013-5-28,68,58,49,46,41,36,75,54,35,0.00,40.00,13,5,17,0.00
2013-5-29,56,51,49,49,47,44,90,87,72,0.00,40.00,21,13,27,0.00
2013-5-30,49,49,49,45,45,45,87,87,87,0.00,40.00,10,10,15,0.00
2013-5-31,51,47,45,43,41,38,89,80,65,0.00,40.00,30,21,42,0.00
2013-6-1,66,55,45,40,36,33,77,53,31,0.00,40.00,15,7,19,0.00
2013-6-2,73,61,50,47,42,39,71,52,32,0.00,40.00,24,14,29,0.00
2013-6-3,59,50,44,50,38,32,88,66,38,0.00,40.00,35,22,44,0.00
2013-6-4,50,45,39,38,36,34,87,71,55,0.00,40.00,15,9,20,0.00
2013-6-5,65,52,41,38,35,29,82,55,27,0.00,40.00,13,6,18,0.00
2013-6-6,74,62,50,47,41,33,67,48,34,0.00,40.00,16,9,26,0.00
2013-6-7,81,66,54,50,47,42,77,53,28,0.00,40.00,19,7,28,0.00
2013-6-8,64,63,62,49,46,44,57,52,50,0.00,40.00,18,16,26,0.00
2013-6-9,80,76,68,48,46,45,47,36,29,0.00,40.00,16,11,21,0.00
2013-6-10,76,64,50,52,46,40,84,54,30,0.00,40.00,24,11,31,0.00
2013-6-11,74,64,54,58,52,47,88,67,53,0.00,40.00,30,13,43,0.00
2013-6-12,68,58,51,55,51,49,90,77,60,0.00,40.00,26,12,35,0.00
2013-6-13,75,65,50,54,51,47,90,61,40,0.00,40.00,32,17,49,0.00
2013-6-14,66,57,49,47,36,27,83,49,25,0.00,40.00,30,15,38,0.00
2013-6-15,76,62,46,35,32,29,56,34,20,0.00,40.00,11,7,18,0.00
2013-6-16,73,65,53,44,39,34,54,40,32,0.00,40.00,15,8,21,0.00
2013-6-17,77,66,55,48,45,41,64,48,34,0.00,40.00,21,12,26,0.00
2013-6-18,86,71,58,53,48,42,65,47,29,0.00,40.00,25,14,29,0.00
2013-6-19,86,72,59,54,47,38,52,41,32,0.00,40.00,32,17,44,0.00
2013-6-20,68,60,51,38,32,27,43,35,27,0.00,40.00,19,8,26,0.00
2013-6-22,65,57,51,49,46,45,82,68,50,0.00,40.00,20,8,24,0.00
2013-6-23,51,50,50,47,46,46,86,86,85,0.00,40.00,10,6,12,0.00
2013-6-24,85,74,57,53,49,44,62,42,29,0.00,40.00,17,8,23,0.00
2013-6-25,82,71,59,52,45,40,77,42,23,0.00,40.00,17,9,26,0.00
2013-6-26,82,72,63,56,47,41,70,43,30,0.00,40.00,24,9,28,0.00
2013-6-27,85,72,61,56,52,49,80,52,31,0.00,40.00,14,7,22,0.00
2013-6-28,89,76,63,54,51,47,57,43,29,0.00,40.00,12,7,16,0.00
2013-6-29,86,75,64,59,53,49,85,48,35,0.00,40.00,17,8,34,0.00
2013-6-30,87,74,61,58,54,49,83,52,29,0.00,40.00,19,7,26,0.00
2013-7-1,90,77,63,56,51,48,59,41,28,0.00,40.00,18,7,22,0.00
2013-7-2,90,78,66,54,51,47,57,40,27,0.00,40.00,13,6,17,0.00
2013-7-3,95,82,68,58,51,45,45,35,26,0.00,40.00,19,10,26,0.00
2013-7-4,87,76,66,64,56,48,86,51,33,0.00,40.00,23,9,30,0.00
2013-7-5,79,69,61,60,52,49,79,56,37,0.00,40.00,26,6,36,0.00
2013-7-6,80,67,57,55,51,45,88,60,31,0.00,40.00,18,7,23,0.00
2013-7-7,84,69,56,55,50,43,89,55,32,0.00,40.00,17,8,25,0.00
2013-7-8,89,70,59,57,51,45,88,54,29,0.00,40.00,35,7,60,0.00
2013-7-9,77,65,58,58,54,46,90,70,35,0.00,40.00,13,7,19,0.00